createdAt,value
2023-05-21T00:00:08.562Z,50.06
2023-05-21T00:05:08.389Z,50.06
2023-05-21T00:10:08.431Z,50.05
2023-05-21T00:15:08.475Z,50.07
2023-05-21T00:20:08.445Z,50.08
2023-05-21T00:25:08.427Z,50.08
2023-05-21T00:30:08.402Z,50.09
2023-05-21T00:35:08.412Z,50.11
2023-05-21T00:40:08.558Z,50.12
2023-05-21T00:45:08.588Z,50.12
2023-05-21T00:50:08.601Z,50.14
2023-05-21T00:55:08.631Z,50.14
2023-05-21T01:00:08.639Z,50.16
2023-05-21T01:05:08.606Z,50.16
2023-05-21T01:10:08.624Z,50.2
2023-05-21T01:15:08.652Z,50.21
2023-05-21T01:20:09.277Z,50.22
2023-05-21T01:25:08.384Z,50.22
2023-05-21T01:30:08.410Z,50.27
2023-05-21T01:35:08.373Z,50.28
2023-05-21T01:40:08.378Z,50.28
2023-05-21T01:45:08.376Z,50.28
2023-05-21T01:50:08.372Z,50.36
2023-05-21T01:55:08.366Z,50.36
2023-05-21T02:00:08.321Z,50.36
2023-05-21T02:05:08.357Z,50.39
2023-05-21T02:10:08.354Z,50.41
2023-05-21T02:15:08.372Z,50.43
2023-05-21T02:20:08.363Z,50.44
2023-05-21T02:25:08.368Z,50.44
2023-05-21T02:30:08.386Z,50.49
2023-05-21T02:35:08.384Z,50.51
2023-05-21T02:40:08.397Z,50.53
2023-05-21T02:45:08.391Z,50.54
2023-05-21T02:50:08.397Z,50.54
2023-05-21T02:55:08.503Z,50.56
2023-05-21T03:00:08.513Z,50.59
2023-05-21T03:05:08.516Z,50.61
2023-05-21T03:10:08.514Z,50.63
2023-05-21T03:15:08.522Z,50.65
2023-05-21T03:20:08.562Z,50.67
2023-05-21T03:25:08.540Z,50.7
2023-05-21T03:30:08.532Z,50.68
2023-05-21T03:35:08.533Z,50.72
2023-05-21T03:40:08.587Z,50.73
2023-05-21T03:45:08.568Z,50.73
2023-05-21T03:50:08.565Z,50.75
2023-05-21T03:55:08.542Z,50.77
2023-05-21T04:00:08.538Z,50.78
2023-05-21T04:05:02.640Z,50.8
2023-05-21T04:10:02.797Z,50.81
2023-05-21T04:15:03.023Z,50.84
2023-05-21T04:20:02.114Z,50.87
2023-05-21T04:25:02.143Z,50.87
2023-05-21T04:30:02.281Z,50.89
2023-05-21T04:35:02.334Z,50.91
2023-05-21T04:40:02.457Z,50.9
2023-05-21T04:45:02.585Z,50.91
2023-05-21T04:50:02.723Z,50.91
2023-05-21T04:55:02.917Z,50.91
2023-05-21T05:00:02.982Z,50.95
2023-05-21T05:05:02.211Z,50.97
2023-05-21T05:10:02.291Z,50.98
2023-05-21T05:15:02.409Z,51.01
2023-05-21T05:20:02.702Z,51.0
2023-05-21T05:25:02.745Z,51.02
2023-05-21T05:30:02.794Z,51.03
2023-05-21T05:35:02.814Z,51.04
2023-05-21T05:40:02.848Z,51.05
2023-05-21T05:45:02.980Z,51.04
2023-05-21T05:50:02.107Z,51.04
2023-05-21T05:55:02.247Z,51.05
2023-05-21T06:00:02.326Z,51.05
2023-05-21T06:05:02.448Z,51.03
2023-05-21T06:10:02.527Z,51.01
2023-05-21T06:15:02.590Z,51.0
2023-05-21T06:20:02.805Z,51.0
2023-05-21T06:25:02.938Z,50.98
2023-05-21T06:30:02.141Z,50.98
2023-05-21T06:35:02.174Z,50.93
2023-05-21T06:40:02.238Z,50.91
2023-05-21T06:45:02.323Z,50.89
2023-05-21T06:50:02.402Z,50.85
2023-05-21T06:55:02.519Z,50.83
2023-05-21T07:00:02.575Z,50.8
2023-05-21T07:05:02.728Z,50.78
2023-05-21T07:10:02.755Z,50.75
2023-05-21T07:15:02.788Z,50.73
2023-05-21T07:20:02.880Z,50.69
2023-05-21T07:25:03.075Z,50.69
2023-05-21T07:30:02.313Z,50.62
2023-05-21T07:35:02.477Z,50.6
2023-05-21T07:40:02.512Z,50.57
2023-05-21T07:45:02.609Z,50.57
2023-05-21T07:50:02.743Z,50.5
2023-05-21T07:55:02.841Z,50.47
2023-05-21T08:00:03.099Z,50.43
2023-05-21T08:05:02.233Z,50.38
2023-05-21T08:10:03.023Z,50.36
2023-05-21T08:15:02.159Z,50.33
2023-05-21T08:20:02.304Z,50.27
2023-05-21T08:25:02.346Z,50.27
2023-05-21T08:30:02.493Z,50.25
2023-05-21T08:35:02.603Z,50.25
2023-05-21T08:40:02.741Z,50.25
2023-05-21T08:45:02.865Z,50.23
2023-05-21T08:50:02.999Z,50.25
2023-05-21T08:55:02.103Z,50.25
2023-05-21T09:00:02.203Z,50.27
2023-05-21T09:05:02.294Z,50.25
2023-05-21T09:10:02.394Z,50.2
2023-05-21T09:15:02.407Z,50.2
2023-05-21T09:20:02.561Z,50.15
2023-05-21T09:25:02.591Z,50.11
2023-05-21T09:30:02.608Z,50.03
2023-05-21T09:35:02.672Z,49.97
2023-05-21T09:40:02.805Z,49.9
2023-05-21T09:45:02.833Z,49.84
2023-05-21T09:50:02.975Z,49.76
2023-05-21T09:55:02.117Z,49.72
2023-05-21T10:00:02.349Z,49.65
2023-05-21T10:05:02.552Z,49.65
2023-05-21T10:10:02.751Z,49.6
2023-05-21T10:15:02.854Z,49.58
2023-05-21T10:20:02.905Z,49.58
2023-05-21T10:25:03.015Z,49.62
2023-05-21T10:30:02.138Z,49.62
2023-05-21T10:35:02.163Z,49.62
2023-05-21T10:40:02.217Z,49.62
2023-05-21T10:45:05.169Z,49.62
2023-05-21T10:50:02.342Z,49.64
2023-05-21T10:55:02.620Z,49.61
2023-05-21T11:00:02.784Z,49.61
2023-05-21T11:05:02.874Z,49.59
2023-05-21T11:10:03.020Z,49.59
2023-05-21T11:15:02.157Z,49.6
2023-05-21T11:20:02.251Z,49.61
2023-05-21T11:25:02.448Z,49.58
2023-05-21T11:30:12.504Z,49.59
2023-05-21T11:35:02.556Z,49.57
2023-05-21T11:40:02.710Z,49.56
2023-05-21T11:45:02.863Z,49.56
2023-05-21T11:50:03.133Z,49.56
2023-05-21T11:55:02.350Z,49.56
2023-05-21T12:00:02.471Z,49.5
2023-05-21T12:05:02.578Z,49.5
2023-05-21T12:10:02.760Z,49.5
2023-05-21T12:15:02.960Z,49.27
2023-05-21T12:20:02.200Z,49.21
2023-05-21T12:25:02.559Z,49.13
2023-05-21T12:30:02.710Z,48.99
2023-05-21T12:35:02.837Z,48.89
2023-05-21T12:40:02.957Z,48.76
2023-05-21T12:45:02.148Z,48.62
2023-05-21T12:50:03.148Z,48.46
2023-05-21T12:55:02.366Z,48.31
2023-05-21T13:00:02.421Z,48.21
2023-05-21T13:05:02.605Z,48.14
2023-05-21T13:10:02.826Z,48.13
2023-05-21T13:15:02.952Z,48.13
2023-05-21T13:20:12.176Z,48.16
2023-05-21T13:25:02.336Z,48.2
2023-05-21T13:30:02.574Z,48.24
2023-05-21T13:35:02.878Z,48.27
2023-05-21T13:40:03.253Z,48.27
2023-05-21T13:45:02.416Z,48.28
2023-05-21T13:50:02.616Z,48.3
2023-05-21T13:55:02.765Z,48.33
2023-05-21T14:00:02.919Z,48.35
2023-05-21T14:05:03.076Z,48.4
2023-05-21T14:10:02.335Z,48.44
2023-05-21T14:15:02.417Z,48.48
2023-05-21T14:20:02.635Z,48.53
2023-05-21T14:25:02.804Z,48.55
2023-05-21T14:30:02.940Z,48.55
2023-05-21T14:35:02.026Z,48.55
2023-05-21T14:40:02.172Z,48.71
2023-05-21T14:45:17.477Z,48.72
2023-05-21T14:50:02.985Z,48.73
2023-05-21T14:55:02.233Z,48.72
2023-05-21T15:00:02.377Z,48.68
2023-05-21T15:05:02.527Z,48.64
2023-05-21T15:10:02.831Z,48.64
2023-05-21T15:15:03.122Z,48.64
2023-05-21T15:20:03.930Z,48.65
2023-05-21T15:25:02.271Z,48.65
2023-05-21T15:30:02.621Z,48.69
2023-05-21T15:35:02.897Z,48.65
2023-05-21T15:40:02.204Z,48.66
2023-05-21T15:45:02.439Z,48.66
2023-05-21T15:50:02.670Z,48.66
2023-05-21T15:55:02.906Z,48.67
2023-05-21T16:00:03.152Z,48.68
2023-05-21T16:05:02.404Z,48.73
2023-05-21T16:10:02.529Z,48.77
2023-05-21T16:15:02.670Z,48.81
2023-05-21T16:20:02.833Z,48.83
2023-05-21T16:25:03.070Z,48.86
2023-05-21T16:30:02.202Z,48.88
2023-05-21T16:35:02.410Z,48.89
2023-05-21T16:40:02.788Z,48.93
2023-05-21T16:45:03.049Z,48.94
2023-05-21T16:50:02.203Z,48.96
2023-05-21T16:55:02.461Z,48.98
2023-05-21T17:00:02.706Z,48.98
2023-05-21T17:05:03.014Z,48.98
2023-05-21T17:10:02.183Z,49.06
2023-05-21T17:15:02.331Z,49.05
2023-05-21T17:20:02.720Z,49.06
2023-05-21T17:25:02.981Z,49.07
2023-05-21T17:30:02.161Z,49.08
2023-05-21T17:35:02.350Z,49.11
2023-05-21T17:40:02.506Z,49.12
2023-05-21T17:45:02.626Z,49.12
2023-05-21T17:50:02.722Z,49.16
2023-05-21T17:55:02.883Z,49.17
2023-05-21T18:00:02.960Z,49.21
2023-05-21T18:05:01.968Z,49.26
2023-05-21T18:10:02.028Z,49.28
2023-05-21T18:15:02.172Z,49.28
2023-05-21T18:20:02.354Z,49.28
2023-05-21T18:25:02.423Z,49.42
2023-05-21T18:30:02.555Z,49.48
2023-05-21T18:35:02.604Z,49.54
2023-05-21T18:40:02.667Z,49.57
2023-05-21T18:45:02.774Z,49.66
2023-05-21T18:50:02.796Z,49.66
2023-05-21T18:55:02.810Z,49.78
2023-05-21T19:00:02.959Z,49.85
2023-05-21T19:05:02.221Z,49.89
2023-05-21T19:10:02.320Z,49.95
2023-05-21T19:15:02.363Z,50.01
2023-05-21T19:20:02.412Z,50.06
2023-05-21T19:25:02.519Z,50.11
2023-05-21T19:30:02.686Z,50.18
2023-05-21T19:35:02.789Z,50.23
2023-05-21T19:40:02.841Z,50.23
2023-05-21T19:45:02.860Z,50.33
2023-05-21T19:50:03.114Z,50.41
2023-05-21T19:55:02.208Z,50.48
2023-05-21T20:00:02.261Z,50.48
2023-05-21T20:05:02.369Z,50.56
2023-05-21T20:10:02.431Z,50.6
2023-05-21T20:15:02.536Z,50.66
2023-05-21T20:20:02.611Z,50.66
2023-05-21T20:25:02.742Z,50.74
2023-05-21T20:30:02.969Z,50.78
2023-05-21T20:35:03.682Z,50.81
2023-05-21T20:40:02.166Z,50.81
2023-05-21T20:45:02.227Z,50.89
2023-05-21T20:50:02.368Z,50.92
2023-05-21T20:55:02.422Z,50.96
2023-05-21T21:00:02.567Z,50.96
2023-05-21T21:05:02.667Z,51.05
2023-05-21T21:10:02.734Z,51.1
2023-05-21T21:15:02.858Z,51.12
2023-05-21T21:20:03.097Z,51.15
2023-05-21T21:25:02.192Z,51.18
2023-05-21T21:30:02.449Z,51.19
2023-05-21T21:35:02.592Z,51.24
2023-05-21T21:40:02.679Z,51.27
2023-05-21T21:45:02.864Z,51.26
2023-05-21T21:50:02.118Z,51.26
2023-05-21T21:55:02.317Z,51.3
2023-05-21T22:00:02.486Z,51.3
2023-05-21T22:05:15.459Z,51.3
2023-05-21T22:10:08.473Z,51.38
2023-05-21T22:15:08.508Z,51.38
2023-05-21T22:20:08.508Z,51.48
2023-05-21T22:25:08.482Z,51.51
2023-05-21T22:30:08.469Z,51.52
2023-05-21T22:35:08.457Z,51.59
2023-05-21T22:40:08.472Z,51.62
2023-05-21T22:45:08.474Z,51.66
2023-05-21T22:50:08.457Z,51.66
2023-05-21T22:55:08.466Z,51.7
2023-05-21T23:01:16.261Z,51.76
2023-05-21T23:05:08.336Z,51.81
2023-05-21T23:10:08.881Z,51.83
2023-05-21T23:15:08.864Z,51.83
2023-05-21T23:20:08.881Z,51.83
2023-05-21T23:25:08.942Z,51.97
2023-05-21T23:30:07.949Z,52.01
2023-05-21T23:35:07.958Z,52.06
2023-05-21T23:40:07.943Z,52.11
2023-05-21T23:45:07.937Z,52.13
2023-05-21T23:50:07.982Z,52.18
2023-05-21T23:55:07.988Z,52.22
